sensor_id;sensor_type;location;lat;lon;timestamp;P1;durP1;ratioP1;P2;durP2;ratioP2
78555;SDS011;67851;51.354;7.744;2023-11-19T00:00:19;1.48;;;1.00;;
78555;SDS011;67851;51.354;7.744;2023-11-19T00:02:47;1.58;;;1.00;;
78555;SDS011;67851;51.354;7.744;2023-11-19T00:05:14;0.75;;;0.70;;
78555;SDS011;67851;51.354;7.744;2023-11-19T00:07:44;3.20;;;1.10;;
78555;SDS011;67851;51.354;7.744;2023-11-19T00:10:15;2.05;;;1.13;;
78555;SDS011;67851;51.354;7.744;2023-11-19T00:12:47;4.95;;;1.00;;
78555;SDS011;67851;51.354;7.744;2023-11-19T00:15:16;1.77;;;0.63;;
78555;SDS011;67851;51.354;7.744;2023-11-19T00:17:46;1.30;;;0.80;;
78555;SDS011;67851;51.354;7.744;2023-11-19T00:20:15;0.80;;;0.80;;
78555;SDS011;67851;51.354;7.744;2023-11-19T00:22:42;1.02;;;0.90;;
78555;SDS011;67851;51.354;7.744;2023-11-19T00:25:13;1.50;;;1.10;;
78555;SDS011;67851;51.354;7.744;2023-11-19T00:27:44;1.02;;;0.90;;
78555;SDS011;67851;51.354;7.744;2023-11-19T00:30:13;1.58;;;1.05;;
78555;SDS011;67851;51.354;7.744;2023-11-19T00:32:44;1.50;;;0.93;;
78555;SDS011;67851;51.354;7.744;2023-11-19T00:35:12;1.25;;;0.80;;
78555;SDS011;67851;51.354;7.744;2023-11-19T00:37:41;1.10;;;0.90;;
78555;SDS011;67851;51.354;7.744;2023-11-19T00:40:12;1.13;;;1.02;;
78555;SDS011;67851;51.354;7.744;2023-11-19T00:42:40;1.35;;;1.02;;
78555;SDS011;67851;51.354;7.744;2023-11-19T00:45:07;1.85;;;1.20;;
78555;SDS011;67851;51.354;7.744;2023-11-19T00:47:40;5.07;;;1.48;;
78555;SDS011;67851;51.354;7.744;2023-11-19T00:50:12;2.67;;;1.27;;
78555;SDS011;67851;51.354;7.744;2023-11-19T00:52:40;3.88;;;1.73;;
78555;SDS011;67851;51.354;7.744;2023-11-19T00:55:07;1.65;;;1.50;;
78555;SDS011;67851;51.354;7.744;2023-11-19T00:57:34;2.40;;;2.20;;
78555;SDS011;67851;51.354;7.744;2023-11-19T01:00:05;2.78;;;2.00;;
78555;SDS011;67851;51.354;7.744;2023-11-19T01:02:40;2.50;;;2.03;;
78555;SDS011;67851;51.354;7.744;2023-11-19T01:05:08;4.95;;;2.60;;
78555;SDS011;67851;51.354;7.744;2023-11-19T01:07:40;3.10;;;2.70;;
78555;SDS011;67851;51.354;7.744;2023-11-19T01:10:08;4.65;;;3.25;;
78555;SDS011;67851;51.354;7.744;2023-11-19T01:12:35;5.72;;;2.90;;
78555;SDS011;67851;51.354;7.744;2023-11-19T01:15:05;6.20;;;3.30;;
78555;SDS011;67851;51.354;7.744;2023-11-19T01:17:38;3.50;;;3.15;;
78555;SDS011;67851;51.354;7.744;2023-11-19T01:20:18;6.40;;;3.10;;
78555;SDS011;67851;51.354;7.744;2023-11-19T01:22:46;7.63;;;4.00;;
78555;SDS011;67851;51.354;7.744;2023-11-19T01:25:16;7.00;;;4.13;;
78555;SDS011;67851;51.354;7.744;2023-11-19T01:27:43;5.50;;;4.13;;
78555;SDS011;67851;51.354;7.744;2023-11-19T01:30:11;5.28;;;3.67;;
78555;SDS011;67851;51.354;7.744;2023-11-19T01:32:41;4.20;;;3.67;;
78555;SDS011;67851;51.354;7.744;2023-11-19T01:35:11;12.02;;;4.75;;
78555;SDS011;67851;51.354;7.744;2023-11-19T01:37:38;5.07;;;4.15;;
78555;SDS011;67851;51.354;7.744;2023-11-19T01:40:09;7.82;;;5.10;;
78555;SDS011;67851;51.354;7.744;2023-11-19T01:42:38;8.57;;;5.38;;
78555;SDS011;67851;51.354;7.744;2023-11-19T01:45:05;7.07;;;4.53;;
78555;SDS011;67851;51.354;7.744;2023-11-19T01:47:36;5.25;;;3.97;;
78555;SDS011;67851;51.354;7.744;2023-11-19T01:50:07;7.18;;;4.47;;
78555;SDS011;67851;51.354;7.744;2023-11-19T01:52:35;4.57;;;3.15;;
78555;SDS011;67851;51.354;7.744;2023-11-19T01:55:05;3.78;;;3.00;;
78555;SDS011;67851;51.354;7.744;2023-11-19T01:57:38;3.13;;;2.65;;
78555;SDS011;67851;51.354;7.744;2023-11-19T02:00:23;4.13;;;2.25;;
78555;SDS011;67851;51.354;7.744;2023-11-19T02:02:50;1.95;;;1.63;;
78555;SDS011;67851;51.354;7.744;2023-11-19T02:05:19;1.70;;;1.50;;
78555;SDS011;67851;51.354;7.744;2023-11-19T02:07:46;1.60;;;1.50;;
78555;SDS011;67851;51.354;7.744;2023-11-19T02:10:17;1.55;;;1.40;;
78555;SDS011;67851;51.354;7.744;2023-11-19T02:12:45;2.30;;;1.60;;
78555;SDS011;67851;51.354;7.744;2023-11-19T02:15:12;1.10;;;1.00;;
78555;SDS011;67851;51.354;7.744;2023-11-19T02:17:39;2.70;;;1.10;;
78555;SDS011;67851;51.354;7.744;2023-11-19T02:20:06;1.52;;;1.15;;
78555;SDS011;67851;51.354;7.744;2023-11-19T02:22:35;1.50;;;1.20;;
78555;SDS011;67851;51.354;7.744;2023-11-19T02:25:10;4.97;;;2.80;;
78555;SDS011;67851;51.354;7.744;2023-11-19T02:30:18;6.10;;;4.88;;
78555;SDS011;67851;51.354;7.744;2023-11-19T02:32:49;4.68;;;3.53;;
78555;SDS011;67851;51.354;7.744;2023-11-19T02:35:15;6.95;;;4.30;;
78555;SDS011;67851;51.354;7.744;2023-11-19T02:37:44;5.32;;;4.38;;
78555;SDS011;67851;51.354;7.744;2023-11-19T02:40:11;7.40;;;5.22;;
78555;SDS011;67851;51.354;7.744;2023-11-19T02:42:40;7.57;;;4.93;;
78555;SDS011;67851;51.354;7.744;2023-11-19T02:45:08;9.93;;;5.38;;
78555;SDS011;67851;51.354;7.744;2023-11-19T02:47:40;12.32;;;5.63;;
78555;SDS011;67851;51.354;7.744;2023-11-19T02:50:09;6.65;;;5.38;;
78555;SDS011;67851;51.354;7.744;2023-11-19T02:52:41;9.88;;;5.18;;
78555;SDS011;67851;51.354;7.744;2023-11-19T02:55:11;13.30;;;5.70;;
78555;SDS011;67851;51.354;7.744;2023-11-19T02:57:44;11.20;;;5.40;;
78555;SDS011;67851;51.354;7.744;2023-11-19T03:00:15;13.73;;;4.72;;
78555;SDS011;67851;51.354;7.744;2023-11-19T03:02:44;8.38;;;4.15;;
78555;SDS011;67851;51.354;7.744;2023-11-19T03:05:13;9.38;;;3.85;;
78555;SDS011;67851;51.354;7.744;2023-11-19T03:07:41;10.50;;;3.75;;
78555;SDS011;67851;51.354;7.744;2023-11-19T03:10:12;17.05;;;3.72;;
78555;SDS011;67851;51.354;7.744;2023-11-19T03:35:36;16.25;;;3.40;;
78555;SDS011;67851;51.354;7.744;2023-11-19T03:38:03;12.43;;;2.83;;
78555;SDS011;67851;51.354;7.744;2023-11-19T03:40:30;13.50;;;3.05;;
78555;SDS011;67851;51.354;7.744;2023-11-19T03:42:57;15.82;;;2.75;;
78555;SDS011;67851;51.354;7.744;2023-11-19T03:45:25;14.52;;;4.43;;
78555;SDS011;67851;51.354;7.744;2023-11-19T03:47:52;15.38;;;2.97;;
78555;SDS011;67851;51.354;7.744;2023-11-19T03:50:19;16.58;;;3.17;;
78555;SDS011;67851;51.354;7.744;2023-11-19T03:52:47;19.42;;;3.10;;
78555;SDS011;67851;51.354;7.744;2023-11-19T03:55:14;13.65;;;5.00;;
78555;SDS011;67851;51.354;7.744;2023-11-19T03:57:41;16.48;;;3.53;;
78555;SDS011;67851;51.354;7.744;2023-11-19T04:00:08;13.70;;;4.32;;
78555;SDS011;67851;51.354;7.744;2023-11-19T04:02:39;18.58;;;3.60;;
78555;SDS011;67851;51.354;7.744;2023-11-19T04:05:08;12.40;;;2.67;;
78555;SDS011;67851;51.354;7.744;2023-11-19T04:07:51;18.45;;;3.63;;
78555;SDS011;67851;51.354;7.744;2023-11-19T04:10:18;12.73;;;2.83;;
78555;SDS011;67851;51.354;7.744;2023-11-19T04:12:45;16.35;;;3.70;;
78555;SDS011;67851;51.354;7.744;2023-11-19T04:15:11;18.92;;;3.70;;
78555;SDS011;67851;51.354;7.744;2023-11-19T04:17:38;17.52;;;2.95;;
78555;SDS011;67851;51.354;7.744;2023-11-19T04:20:06;14.85;;;3.38;;
78555;SDS011;67851;51.354;7.744;2023-11-19T04:22:37;10.90;;;3.05;;
78555;SDS011;67851;51.354;7.744;2023-11-19T04:25:04;15.98;;;2.60;;
78555;SDS011;67851;51.354;7.744;2023-11-19T04:27:31;11.43;;;2.63;;
78555;SDS011;67851;51.354;7.744;2023-11-19T04:29:59;16.15;;;3.47;;
78555;SDS011;67851;51.354;7.744;2023-11-19T04:32:37;13.05;;;2.55;;
78555;SDS011;67851;51.354;7.744;2023-11-19T04:35:04;16.52;;;2.63;;
78555;SDS011;67851;51.354;7.744;2023-11-19T04:37:31;12.15;;;2.60;;
78555;SDS011;67851;51.354;7.744;2023-11-19T04:39:58;8.75;;;2.28;;
78555;SDS011;67851;51.354;7.744;2023-11-19T04:42:26;20.23;;;2.70;;
78555;SDS011;67851;51.354;7.744;2023-11-19T04:44:53;18.75;;;3.58;;
78555;SDS011;67851;51.354;7.744;2023-11-19T04:47:22;10.63;;;2.42;;
78555;SDS011;67851;51.354;7.744;2023-11-19T04:49:49;21.75;;;2.83;;
78555;SDS011;67851;51.354;7.744;2023-11-19T04:55:43;22.08;;;5.03;;
78555;SDS011;67851;51.354;7.744;2023-11-19T04:58:09;13.88;;;2.42;;
78555;SDS011;67851;51.354;7.744;2023-11-19T05:00:36;17.48;;;2.88;;
78555;SDS011;67851;51.354;7.744;2023-11-19T05:03:03;26.08;;;4.88;;
78555;SDS011;67851;51.354;7.744;2023-11-19T05:05:30;19.08;;;2.95;;
78555;SDS011;67851;51.354;7.744;2023-11-19T05:07:56;19.48;;;3.35;;
78555;SDS011;67851;51.354;7.744;2023-11-19T05:10:23;17.10;;;3.53;;
78555;SDS011;67851;51.354;7.744;2023-11-19T05:12:51;18.73;;;2.65;;
78555;SDS011;67851;51.354;7.744;2023-11-19T05:15:18;15.75;;;2.75;;
78555;SDS011;67851;51.354;7.744;2023-11-19T05:17:45;14.20;;;2.47;;
78555;SDS011;67851;51.354;7.744;2023-11-19T05:20:12;24.75;;;4.25;;
78555;SDS011;67851;51.354;7.744;2023-11-19T05:22:43;14.73;;;3.38;;
78555;SDS011;67851;51.354;7.744;2023-11-19T05:25:09;24.70;;;4.00;;
78555;SDS011;67851;51.354;7.744;2023-11-19T05:27:37;17.83;;;2.95;;
78555;SDS011;67851;51.354;7.744;2023-11-19T05:30:05;25.05;;;4.10;;
78555;SDS011;67851;51.354;7.744;2023-11-19T05:32:35;17.67;;;2.80;;
78555;SDS011;67851;51.354;7.744;2023-11-19T05:35:02;22.38;;;4.20;;
78555;SDS011;67851;51.354;7.744;2023-11-19T05:37:36;20.08;;;3.40;;
78555;SDS011;67851;51.354;7.744;2023-11-19T05:40:05;17.95;;;2.45;;
78555;SDS011;67851;51.354;7.744;2023-11-19T05:42:41;18.67;;;2.78;;
78555;SDS011;67851;51.354;7.744;2023-11-19T05:45:12;20.95;;;3.92;;
78555;SDS011;67851;51.354;7.744;2023-11-19T05:47:41;34.55;;;4.82;;
78555;SDS011;67851;51.354;7.744;2023-11-19T05:50:08;15.10;;;2.67;;
78555;SDS011;67851;51.354;7.744;2023-11-19T05:52:57;17.92;;;3.70;;
78555;SDS011;67851;51.354;7.744;2023-11-19T05:55:24;22.90;;;3.10;;
78555;SDS011;67851;51.354;7.744;2023-11-19T05:57:53;25.15;;;3.28;;
78555;SDS011;67851;51.354;7.744;2023-11-19T06:00:20;26.40;;;2.95;;
78555;SDS011;67851;51.354;7.744;2023-11-19T06:02:47;13.38;;;2.58;;
78555;SDS011;67851;51.354;7.744;2023-11-19T06:05:22;15.43;;;3.30;;
78555;SDS011;67851;51.354;7.744;2023-11-19T06:07:49;35.10;;;4.45;;
78555;SDS011;67851;51.354;7.744;2023-11-19T06:10:17;19.50;;;3.63;;
78555;SDS011;67851;51.354;7.744;2023-11-19T06:12:45;18.17;;;2.53;;
78555;SDS011;67851;51.354;7.744;2023-11-19T06:15:12;27.38;;;4.53;;
78555;SDS011;67851;51.354;7.744;2023-11-19T06:17:44;25.38;;;5.07;;
78555;SDS011;67851;51.354;7.744;2023-11-19T06:20:11;27.05;;;3.97;;
78555;SDS011;67851;51.354;7.744;2023-11-19T06:22:38;39.50;;;5.15;;
78555;SDS011;67851;51.354;7.744;2023-11-19T06:25:05;28.33;;;4.68;;
78555;SDS011;67851;51.354;7.744;2023-11-19T06:27:34;23.05;;;3.42;;
78555;SDS011;67851;51.354;7.744;2023-11-19T06:30:00;22.95;;;3.75;;
78555;SDS011;67851;51.354;7.744;2023-11-19T06:32:28;29.23;;;5.25;;
78555;SDS011;67851;51.354;7.744;2023-11-19T06:34:55;21.40;;;3.97;;
78555;SDS011;67851;51.354;7.744;2023-11-19T06:37:22;19.42;;;4.13;;
78555;SDS011;67851;51.354;7.744;2023-11-19T06:39:53;32.40;;;3.38;;
78555;SDS011;67851;51.354;7.744;2023-11-19T06:42:28;28.50;;;4.95;;
78555;SDS011;67851;51.354;7.744;2023-11-19T06:44:55;32.65;;;5.00;;
78555;SDS011;67851;51.354;7.744;2023-11-19T06:47:27;27.95;;;4.22;;
78555;SDS011;67851;51.354;7.744;2023-11-19T06:49:55;37.28;;;5.60;;
78555;SDS011;67851;51.354;7.744;2023-11-19T06:52:38;33.97;;;4.65;;
78555;SDS011;67851;51.354;7.744;2023-11-19T06:55:06;27.40;;;4.28;;
78555;SDS011;67851;51.354;7.744;2023-11-19T06:57:34;18.15;;;4.00;;
78555;SDS011;67851;51.354;7.744;2023-11-19T07:00:01;28.55;;;3.85;;
78555;SDS011;67851;51.354;7.744;2023-11-19T07:02:29;33.25;;;4.68;;
78555;SDS011;67851;51.354;7.744;2023-11-19T07:04:55;40.15;;;4.85;;
78555;SDS011;67851;51.354;7.744;2023-11-19T07:07:23;24.30;;;4.75;;
78555;SDS011;67851;51.354;7.744;2023-11-19T07:09:50;32.17;;;4.55;;
78555;SDS011;67851;51.354;7.744;2023-11-19T07:12:17;23.13;;;4.28;;
78555;SDS011;67851;51.354;7.744;2023-11-19T07:14:43;29.75;;;4.13;;
78555;SDS011;67851;51.354;7.744;2023-11-19T07:17:10;21.23;;;2.67;;
78555;SDS011;67851;51.354;7.744;2023-11-19T07:19:37;29.20;;;4.32;;
78555;SDS011;67851;51.354;7.744;2023-11-19T07:22:05;29.52;;;4.78;;
78555;SDS011;67851;51.354;7.744;2023-11-19T07:24:32;21.52;;;3.55;;
78555;SDS011;67851;51.354;7.744;2023-11-19T07:26:59;25.40;;;3.92;;
78555;SDS011;67851;51.354;7.744;2023-11-19T07:29:27;32.05;;;4.15;;
78555;SDS011;67851;51.354;7.744;2023-11-19T07:31:55;20.90;;;4.03;;
78555;SDS011;67851;51.354;7.744;2023-11-19T07:34:23;33.20;;;4.40;;
78555;SDS011;67851;51.354;7.744;2023-11-19T07:36:50;37.22;;;4.40;;
78555;SDS011;67851;51.354;7.744;2023-11-19T07:39:17;20.52;;;3.38;;
78555;SDS011;67851;51.354;7.744;2023-11-19T07:41:44;34.58;;;5.20;;
78555;SDS011;67851;51.354;7.744;2023-11-19T07:44:11;29.00;;;5.28;;
78555;SDS011;67851;51.354;7.744;2023-11-19T07:46:37;31.17;;;4.15;;
78555;SDS011;67851;51.354;7.744;2023-11-19T07:49:04;27.80;;;4.32;;
78555;SDS011;67851;51.354;7.744;2023-11-19T07:51:32;31.02;;;5.40;;
78555;SDS011;67851;51.354;7.744;2023-11-19T07:53:59;26.73;;;3.83;;
78555;SDS011;67851;51.354;7.744;2023-11-19T07:56:25;30.02;;;5.30;;
78555;SDS011;67851;51.354;7.744;2023-11-19T07:58:52;32.08;;;4.47;;
78555;SDS011;67851;51.354;7.744;2023-11-19T08:01:19;30.90;;;4.93;;
78555;SDS011;67851;51.354;7.744;2023-11-19T08:03:47;31.40;;;4.50;;
78555;SDS011;67851;51.354;7.744;2023-11-19T08:06:20;37.88;;;5.57;;
78555;SDS011;67851;51.354;7.744;2023-11-19T08:08:48;30.45;;;4.93;;
78555;SDS011;67851;51.354;7.744;2023-11-19T08:11:19;20.08;;;4.38;;
78555;SDS011;67851;51.354;7.744;2023-11-19T08:13:48;25.75;;;4.32;;
78555;SDS011;67851;51.354;7.744;2023-11-19T08:16:21;32.42;;;3.65;;
78555;SDS011;67851;51.354;7.744;2023-11-19T08:18:48;24.95;;;4.07;;
78555;SDS011;67851;51.354;7.744;2023-11-19T08:21:17;24.35;;;3.75;;
78555;SDS011;67851;51.354;7.744;2023-11-19T08:23:43;32.60;;;4.82;;
78555;SDS011;67851;51.354;7.744;2023-11-19T08:26:10;27.50;;;5.13;;
78555;SDS011;67851;51.354;7.744;2023-11-19T08:28:37;35.13;;;4.93;;
78555;SDS011;67851;51.354;7.744;2023-11-19T08:31:05;26.35;;;3.67;;
78555;SDS011;67851;51.354;7.744;2023-11-19T08:33:32;27.58;;;4.95;;
78555;SDS011;67851;51.354;7.744;2023-11-19T08:35:59;35.08;;;5.57;;
78555;SDS011;67851;51.354;7.744;2023-11-19T08:38:27;31.10;;;4.85;;
78555;SDS011;67851;51.354;7.744;2023-11-19T08:40:57;34.78;;;4.78;;
78555;SDS011;67851;51.354;7.744;2023-11-19T08:43:26;26.95;;;4.28;;
78555;SDS011;67851;51.354;7.744;2023-11-19T08:45:55;29.38;;;5.45;;
78555;SDS011;67851;51.354;7.744;2023-11-19T08:48:27;32.90;;;4.63;;
78555;SDS011;67851;51.354;7.744;2023-11-19T08:50:53;27.25;;;4.22;;
78555;SDS011;67851;51.354;7.744;2023-11-19T08:53:22;36.25;;;4.88;;
78555;SDS011;67851;51.354;7.744;2023-11-19T08:55:49;31.23;;;5.25;;
78555;SDS011;67851;51.354;7.744;2023-11-19T08:58:16;20.83;;;3.17;;
78555;SDS011;67851;51.354;7.744;2023-11-19T09:00:42;29.30;;;4.75;;
78555;SDS011;67851;51.354;7.744;2023-11-19T09:03:09;32.67;;;6.25;;
78555;SDS011;67851;51.354;7.744;2023-11-19T09:05:37;30.05;;;4.70;;
78555;SDS011;67851;51.354;7.744;2023-11-19T09:08:05;34.05;;;4.90;;
78555;SDS011;67851;51.354;7.744;2023-11-19T09:10:56;28.38;;;4.53;;
78555;SDS011;67851;51.354;7.744;2023-11-19T09:13:23;34.58;;;5.03;;
78555;SDS011;67851;51.354;7.744;2023-11-19T09:15:49;31.33;;;5.55;;
78555;SDS011;67851;51.354;7.744;2023-11-19T09:18:16;31.83;;;5.72;;
78555;SDS011;67851;51.354;7.744;2023-11-19T09:20:43;29.30;;;4.95;;
78555;SDS011;67851;51.354;7.744;2023-11-19T09:23:20;28.25;;;4.13;;
78555;SDS011;67851;51.354;7.744;2023-11-19T09:26:05;21.33;;;3.15;;
78555;SDS011;67851;51.354;7.744;2023-11-19T09:31:28;34.35;;;4.95;;
78555;SDS011;67851;51.354;7.744;2023-11-19T09:33:54;33.15;;;5.25;;
78555;SDS011;67851;51.354;7.744;2023-11-19T09:36:22;31.15;;;4.47;;
78555;SDS011;67851;51.354;7.744;2023-11-19T09:38:49;24.90;;;4.45;;
78555;SDS011;67851;51.354;7.744;2023-11-19T09:41:16;30.05;;;4.72;;
78555;SDS011;67851;51.354;7.744;2023-11-19T09:43:43;29.25;;;4.57;;
78555;SDS011;67851;51.354;7.744;2023-11-19T09:46:14;31.65;;;4.75;;
78555;SDS011;67851;51.354;7.744;2023-11-19T09:48:59;28.70;;;4.32;;
78555;SDS011;67851;51.354;7.744;2023-11-19T09:51:30;19.58;;;4.18;;
78555;SDS011;67851;51.354;7.744;2023-11-19T09:54:23;32.83;;;4.78;;
78555;SDS011;67851;51.354;7.744;2023-11-19T09:57:27;29.48;;;4.88;;
78555;SDS011;67851;51.354;7.744;2023-11-19T09:59:57;32.65;;;4.93;;
78555;SDS011;67851;51.354;7.744;2023-11-19T10:02:33;24.05;;;4.60;;
78555;SDS011;67851;51.354;7.744;2023-11-19T10:14:03;30.83;;;4.80;;
78555;SDS011;67851;51.354;7.744;2023-11-19T10:19:47;27.95;;;4.60;;
78555;SDS011;67851;51.354;7.744;2023-11-19T10:22:14;33.25;;;4.70;;
78555;SDS011;67851;51.354;7.744;2023-11-19T10:24:43;31.65;;;5.13;;
78555;SDS011;67851;51.354;7.744;2023-11-19T10:27:16;28.45;;;4.25;;
78555;SDS011;67851;51.354;7.744;2023-11-19T10:29:47;24.45;;;3.95;;
78555;SDS011;67851;51.354;7.744;2023-11-19T10:32:14;32.63;;;5.25;;
78555;SDS011;67851;51.354;7.744;2023-11-19T10:35:06;31.27;;;5.15;;
78555;SDS011;67851;51.354;7.744;2023-11-19T10:37:46;30.77;;;4.95;;
78555;SDS011;67851;51.354;7.744;2023-11-19T10:40:16;29.67;;;4.57;;
78555;SDS011;67851;51.354;7.744;2023-11-19T10:43:01;31.10;;;4.95;;
78555;SDS011;67851;51.354;7.744;2023-11-19T10:45:29;31.70;;;4.85;;
78555;SDS011;67851;51.354;7.744;2023-11-19T10:47:59;28.70;;;5.28;;
78555;SDS011;67851;51.354;7.744;2023-11-19T10:50:27;29.23;;;4.53;;
78555;SDS011;67851;51.354;7.744;2023-11-19T10:52:59;26.90;;;3.28;;
78555;SDS011;67851;51.354;7.744;2023-11-19T10:55:36;27.75;;;4.53;;
78555;SDS011;67851;51.354;7.744;2023-11-19T10:58:41;31.15;;;5.20;;
78555;SDS011;67851;51.354;7.744;2023-11-19T11:01:32;31.25;;;4.80;;
78555;SDS011;67851;51.354;7.744;2023-11-19T11:04:01;38.03;;;6.05;;
78555;SDS011;67851;51.354;7.744;2023-11-19T11:06:30;35.45;;;5.82;;
78555;SDS011;67851;51.354;7.744;2023-11-19T11:09:00;32.90;;;4.88;;
78555;SDS011;67851;51.354;7.744;2023-11-19T11:14:26;32.15;;;5.10;;
78555;SDS011;67851;51.354;7.744;2023-11-19T11:16:56;37.47;;;4.90;;
78555;SDS011;67851;51.354;7.744;2023-11-19T11:19:25;34.78;;;5.00;;
78555;SDS011;67851;51.354;7.744;2023-11-19T11:22:00;33.90;;;4.95;;
78555;SDS011;67851;51.354;7.744;2023-11-19T11:27:41;24.23;;;3.90;;
78555;SDS011;67851;51.354;7.744;2023-11-19T11:30:19;27.75;;;5.07;;
78555;SDS011;67851;51.354;7.744;2023-11-19T11:33:03;29.92;;;4.90;;
78555;SDS011;67851;51.354;7.744;2023-11-19T11:39:30;23.25;;;4.43;;
78555;SDS011;67851;51.354;7.744;2023-11-19T11:45:01;28.50;;;5.25;;
78555;SDS011;67851;51.354;7.744;2023-11-19T11:50:12;26.48;;;4.65;;
78555;SDS011;67851;51.354;7.744;2023-11-19T11:53:13;26.02;;;4.82;;
78555;SDS011;67851;51.354;7.744;2023-11-19T11:55:53;22.95;;;4.07;;
78555;SDS011;67851;51.354;7.744;2023-11-19T11:58:37;30.35;;;4.70;;
78555;SDS011;67851;51.354;7.744;2023-11-19T12:01:14;22.70;;;3.65;;
78555;SDS011;67851;51.354;7.744;2023-11-19T12:03:48;30.80;;;5.05;;
78555;SDS011;67851;51.354;7.744;2023-11-19T12:09:34;25.83;;;3.95;;
78555;SDS011;67851;51.354;7.744;2023-11-19T12:20:04;29.13;;;4.13;;
78555;SDS011;67851;51.354;7.744;2023-11-19T12:22:35;26.88;;;5.20;;
78555;SDS011;67851;51.354;7.744;2023-11-19T12:25:05;33.65;;;5.45;;
78555;SDS011;67851;51.354;7.744;2023-11-19T12:31:06;24.52;;;3.72;;
78555;SDS011;67851;51.354;7.744;2023-11-19T12:36:43;20.52;;;3.55;;
78555;SDS011;67851;51.354;7.744;2023-11-19T12:42:38;24.67;;;3.92;;
78555;SDS011;67851;51.354;7.744;2023-11-19T12:45:35;20.90;;;3.63;;
78555;SDS011;67851;51.354;7.744;2023-11-19T12:48:06;29.75;;;4.50;;
78555;SDS011;67851;51.354;7.744;2023-11-19T12:51:03;22.70;;;4.53;;
78555;SDS011;67851;51.354;7.744;2023-11-19T12:53:49;31.55;;;5.30;;
78555;SDS011;67851;51.354;7.744;2023-11-19T12:56:19;20.10;;;4.22;;
78555;SDS011;67851;51.354;7.744;2023-11-19T12:58:50;21.83;;;4.63;;
78555;SDS011;67851;51.354;7.744;2023-11-19T13:01:17;20.25;;;3.67;;
78555;SDS011;67851;51.354;7.744;2023-11-19T13:03:48;23.92;;;5.10;;
78555;SDS011;67851;51.354;7.744;2023-11-19T13:06:21;30.48;;;4.80;;
78555;SDS011;67851;51.354;7.744;2023-11-19T13:08:51;19.90;;;3.25;;
78555;SDS011;67851;51.354;7.744;2023-11-19T13:11:34;26.17;;;4.28;;
78555;SDS011;67851;51.354;7.744;2023-11-19T13:14:06;23.48;;;4.45;;
78555;SDS011;67851;51.354;7.744;2023-11-19T13:16:37;25.80;;;4.20;;
78555;SDS011;67851;51.354;7.744;2023-11-19T13:19:05;26.95;;;4.15;;
78555;SDS011;67851;51.354;7.744;2023-11-19T13:21:32;19.55;;;3.53;;
78555;SDS011;67851;51.354;7.744;2023-11-19T13:24:03;22.50;;;4.13;;
78555;SDS011;67851;51.354;7.744;2023-11-19T13:26:30;20.95;;;3.42;;
78555;SDS011;67851;51.354;7.744;2023-11-19T13:28:57;25.75;;;3.78;;
78555;SDS011;67851;51.354;7.744;2023-11-19T13:31:23;23.88;;;3.92;;
78555;SDS011;67851;51.354;7.744;2023-11-19T13:33:50;18.88;;;3.88;;
78555;SDS011;67851;51.354;7.744;2023-11-19T13:36:17;26.50;;;3.95;;
78555;SDS011;67851;51.354;7.744;2023-11-19T13:38:44;20.45;;;3.38;;
78555;SDS011;67851;51.354;7.744;2023-11-19T13:41:11;27.13;;;5.00;;
78555;SDS011;67851;51.354;7.744;2023-11-19T13:43:39;19.08;;;2.88;;
78555;SDS011;67851;51.354;7.744;2023-11-19T13:46:06;17.80;;;3.20;;
78555;SDS011;67851;51.354;7.744;2023-11-19T13:48:33;15.57;;;2.22;;
78555;SDS011;67851;51.354;7.744;2023-11-19T13:50:59;18.38;;;3.92;;
78555;SDS011;67851;51.354;7.744;2023-11-19T13:53:29;15.80;;;2.17;;
78555;SDS011;67851;51.354;7.744;2023-11-19T13:55:56;19.65;;;3.58;;
78555;SDS011;67851;51.354;7.744;2023-11-19T13:58:25;25.20;;;4.32;;
78555;SDS011;67851;51.354;7.744;2023-11-19T14:00:55;30.52;;;3.97;;
78555;SDS011;67851;51.354;7.744;2023-11-19T14:03:21;31.23;;;5.47;;
78555;SDS011;67851;51.354;7.744;2023-11-19T14:05:49;35.80;;;5.10;;
78555;SDS011;67851;51.354;7.744;2023-11-19T14:08:18;31.00;;;4.47;;
78555;SDS011;67851;51.354;7.744;2023-11-19T14:10:51;33.90;;;5.28;;
78555;SDS011;67851;51.354;7.744;2023-11-19T14:13:18;41.72;;;5.28;;
78555;SDS011;67851;51.354;7.744;2023-11-19T14:15:46;26.98;;;4.82;;
78555;SDS011;67851;51.354;7.744;2023-11-19T14:18:16;23.63;;;4.40;;
78555;SDS011;67851;51.354;7.744;2023-11-19T14:20:44;26.90;;;4.70;;
78555;SDS011;67851;51.354;7.744;2023-11-19T14:23:11;34.03;;;4.88;;
78555;SDS011;67851;51.354;7.744;2023-11-19T14:25:38;27.52;;;4.10;;
78555;SDS011;67851;51.354;7.744;2023-11-19T14:28:06;29.52;;;3.75;;
78555;SDS011;67851;51.354;7.744;2023-11-19T14:30:33;24.13;;;3.40;;
78555;SDS011;67851;51.354;7.744;2023-11-19T14:33:02;29.63;;;4.43;;
78555;SDS011;67851;51.354;7.744;2023-11-19T14:35:30;29.50;;;4.93;;
78555;SDS011;67851;51.354;7.744;2023-11-19T14:37:57;24.48;;;3.78;;
78555;SDS011;67851;51.354;7.744;2023-11-19T14:40:26;28.40;;;4.13;;
78555;SDS011;67851;51.354;7.744;2023-11-19T14:42:55;24.27;;;4.13;;
78555;SDS011;67851;51.354;7.744;2023-11-19T14:45:22;20.40;;;3.88;;
78555;SDS011;67851;51.354;7.744;2023-11-19T14:47:49;32.30;;;4.75;;
78555;SDS011;67851;51.354;7.744;2023-11-19T14:50:15;27.60;;;4.68;;
78555;SDS011;67851;51.354;7.744;2023-11-19T14:52:42;29.02;;;3.92;;
78555;SDS011;67851;51.354;7.744;2023-11-19T14:55:09;31.00;;;3.80;;
78555;SDS011;67851;51.354;7.744;2023-11-19T14:57:38;21.83;;;4.07;;
78555;SDS011;67851;51.354;7.744;2023-11-19T15:00:06;28.92;;;4.50;;
78555;SDS011;67851;51.354;7.744;2023-11-19T15:02:42;20.70;;;4.28;;
78555;SDS011;67851;51.354;7.744;2023-11-19T15:05:09;32.45;;;4.05;;
78555;SDS011;67851;51.354;7.744;2023-11-19T15:07:36;22.92;;;4.30;;
78555;SDS011;67851;51.354;7.744;2023-11-19T15:10:04;22.67;;;3.35;;
78555;SDS011;67851;51.354;7.744;2023-11-19T15:12:36;28.85;;;4.03;;
78555;SDS011;67851;51.354;7.744;2023-11-19T15:15:06;27.67;;;4.45;;
78555;SDS011;67851;51.354;7.744;2023-11-19T15:17:39;26.98;;;4.93;;
78555;SDS011;67851;51.354;7.744;2023-11-19T15:20:06;29.95;;;5.38;;
78555;SDS011;67851;51.354;7.744;2023-11-19T15:22:33;30.65;;;4.50;;
78555;SDS011;67851;51.354;7.744;2023-11-19T15:25:00;26.80;;;4.82;;
78555;SDS011;67851;51.354;7.744;2023-11-19T15:27:31;23.38;;;3.47;;
78555;SDS011;67851;51.354;7.744;2023-11-19T15:29:58;25.45;;;4.55;;
78555;SDS011;67851;51.354;7.744;2023-11-19T15:32:25;25.55;;;4.10;;
78555;SDS011;67851;51.354;7.744;2023-11-19T15:34:52;20.73;;;4.35;;
78555;SDS011;67851;51.354;7.744;2023-11-19T15:37:18;18.73;;;3.15;;
78555;SDS011;67851;51.354;7.744;2023-11-19T15:39:46;29.15;;;5.13;;
78555;SDS011;67851;51.354;7.744;2023-11-19T15:42:14;26.05;;;3.40;;
78555;SDS011;67851;51.354;7.744;2023-11-19T15:44:41;27.85;;;3.58;;
78555;SDS011;67851;51.354;7.744;2023-11-19T15:47:08;17.20;;;3.03;;
78555;SDS011;67851;51.354;7.744;2023-11-19T15:49:38;16.92;;;3.30;;
78555;SDS011;67851;51.354;7.744;2023-11-19T15:52:05;24.50;;;4.18;;
78555;SDS011;67851;51.354;7.744;2023-11-19T15:54:32;27.45;;;3.40;;
78555;SDS011;67851;51.354;7.744;2023-11-19T15:57:03;56.58;;;26.35;;
78555;SDS011;67851;51.354;7.744;2023-11-19T15:59:30;22.45;;;4.20;;
78555;SDS011;67851;51.354;7.744;2023-11-19T16:01:57;24.02;;;5.18;;
78555;SDS011;67851;51.354;7.744;2023-11-19T16:04:24;28.05;;;3.88;;
78555;SDS011;67851;51.354;7.744;2023-11-19T16:06:54;26.58;;;3.60;;
78555;SDS011;67851;51.354;7.744;2023-11-19T16:09:21;25.80;;;3.78;;
78555;SDS011;67851;51.354;7.744;2023-11-19T16:11:48;27.73;;;4.75;;
78555;SDS011;67851;51.354;7.744;2023-11-19T16:14:22;22.80;;;4.25;;